createdAt,value
2018-11-10T00:00:04.111Z,100091.54
2018-11-10T00:01:14.090Z,100093.12
2018-11-10T00:02:23.168Z,100092.61
2018-11-10T00:03:38.870Z,100086.47
2018-11-10T00:04:44.737Z,100083.35
2018-11-10T00:05:50.596Z,100084.19
2018-11-10T00:06:56.416Z,100081.39
2018-11-10T00:08:01.853Z,100079.02
2018-11-10T00:09:07.490Z,100080.58
2018-11-10T00:10:13.348Z,100082.08
2018-11-10T00:11:18.988Z,100083.42
2018-11-10T00:12:24.821Z,100075.08
2018-11-10T00:13:30.639Z,100075.53
2018-11-10T00:14:36.452Z,100076.98
2018-11-10T00:15:42.312Z,100078.71
2018-11-10T00:16:48.149Z,100067.45
2018-11-10T00:17:54.045Z,100072.78
2018-11-10T00:18:59.897Z,100072.14
2018-11-10T00:20:05.404Z,100069.14
2018-11-10T00:21:11.280Z,100067.47
2018-11-10T00:22:17.102Z,100062.03
2018-11-10T00:23:23.114Z,100059.06
2018-11-10T00:24:28.958Z,100054.42
2018-11-10T00:25:34.802Z,100060.05
2018-11-10T00:26:40.620Z,100057.09
2018-11-10T00:27:46.436Z,100057.09
2018-11-10T00:28:52.399Z,100057.42
2018-11-10T00:29:58.243Z,100059.52
2018-11-10T00:31:04.148Z,100053.98
2018-11-10T00:32:09.680Z,100053.47
2018-11-10T00:33:15.531Z,100051.44
2018-11-10T00:34:21.356Z,100054.06
2018-11-10T00:35:27.131Z,100052.41
2018-11-10T00:36:32.937Z,100054.50
2018-11-10T00:37:38.736Z,100057.23
2018-11-10T00:38:44.186Z,100053.72
2018-11-10T00:39:50.036Z,100062.02
2018-11-10T00:40:55.867Z,100063.38
2018-11-10T00:42:01.701Z,100061.58
2018-11-10T00:43:07.471Z,100063.67
2018-11-10T00:44:13.278Z,100066.19
2018-11-10T00:45:18.436Z,100067.84
2018-11-10T00:46:24.002Z,100070.25
2018-11-10T00:47:29.122Z,100070.97
2018-11-10T00:48:34.679Z,100074.68
2018-11-10T00:49:40.184Z,100074.52
2018-11-10T00:50:45.255Z,100075.25
2018-11-10T00:51:50.701Z,100067.75
2018-11-10T00:52:56.209Z,100073.22
2018-11-10T00:54:02.015Z,100067.73
2018-11-10T00:55:07.133Z,100072.06
2018-11-10T00:56:12.951Z,100069.47
2018-11-10T00:57:18.412Z,100075.39
2018-11-10T00:58:24.188Z,100073.78
2018-11-10T00:59:30.041Z,100074.32
2018-11-10T01:00:35.917Z,100074.09
2018-11-10T01:01:41.046Z,100069.57
2018-11-10T01:02:46.824Z,100069.70
2018-11-10T01:03:51.937Z,100069.80
2018-11-10T01:04:57.778Z,100072.77
2018-11-10T01:06:03.592Z,100072.31
2018-11-10T01:07:09.384Z,100065.30
2018-11-10T01:08:15.269Z,100070.42
2018-11-10T01:09:21.074Z,100073.02
2018-11-10T01:10:26.889Z,100071.18
2018-11-10T01:11:32.742Z,100067.70
2018-11-10T01:12:38.631Z,100070.92
2018-11-10T01:13:44.448Z,100072.41
2018-11-10T01:14:50.231Z,100074.44
2018-11-10T01:15:56.088Z,100072.78
2018-11-10T01:17:01.966Z,100076.73
2018-11-10T01:18:07.389Z,100066.18
2018-11-10T01:19:13.219Z,100072.61
2018-11-10T01:20:19.070Z,100070.34
2018-11-10T01:21:24.904Z,100068.23
2018-11-10T01:22:30.687Z,100063.14
2018-11-10T01:23:36.527Z,100069.44
2018-11-10T01:24:42.350Z,100062.45
2018-11-10T01:25:48.161Z,100061.83
2018-11-10T01:26:54.021Z,100059.59
2018-11-10T01:27:59.886Z,100063.47
2018-11-10T01:29:05.871Z,100057.98
2018-11-10T01:30:11.272Z,100068.48
2018-11-10T01:31:17.101Z,100060.67
2018-11-10T01:32:23.212Z,100063.34
2018-11-10T01:33:29.009Z,100060.82
2018-11-10T01:34:34.796Z,100056.39
2018-11-10T01:35:40.690Z,100045.38
2018-11-10T01:36:46.222Z,100045.38
2018-11-10T01:37:52.034Z,100043.03
2018-11-10T01:38:57.511Z,100040.95
2018-11-10T01:40:03.554Z,100041.58
2018-11-10T01:41:09.406Z,100039.53
2018-11-10T01:42:15.207Z,100041.03
2018-11-10T01:43:21.077Z,100041.82
2018-11-10T01:44:26.904Z,100042.14
2018-11-10T01:45:32.704Z,100033.64
2018-11-10T01:46:38.754Z,100030.05
2018-11-10T01:47:44.653Z,100038.78
2018-11-10T01:48:59.146Z,100035.90
2018-11-10T01:50:05.253Z,100035.73
2018-11-10T01:51:11.115Z,100038.30
2018-11-10T01:52:17.001Z,100032.22
2018-11-10T01:53:22.814Z,100029.84
2018-11-10T01:54:28.652Z,100028.53
2018-11-10T01:55:34.490Z,100027.30
2018-11-10T01:56:40.325Z,100023.89
2018-11-10T01:57:46.124Z,100022.11
2018-11-10T01:58:51.919Z,100022.16
2018-11-10T01:59:57.718Z,100023.89
2018-11-10T02:01:03.163Z,100014.09
2018-11-10T02:02:09.088Z,100014.67
2018-11-10T02:03:14.926Z,100005.96
2018-11-10T02:04:20.758Z,100007.48
2018-11-10T02:05:26.587Z,100008.68
2018-11-10T02:06:32.446Z,100001.32
2018-11-10T02:07:38.632Z,100001.80
2018-11-10T02:08:44.920Z,100001.30
2018-11-10T02:09:50.751Z,99996.48
2018-11-10T02:10:56.628Z,100002.38
2018-11-10T02:12:02.116Z,99998.30
2018-11-10T02:13:07.603Z,99991.14
2018-11-10T02:14:13.363Z,99993.90
2018-11-10T02:15:19.199Z,99994.86
2018-11-10T02:16:25.028Z,99996.13
2018-11-10T02:17:30.863Z,99997.16
2018-11-10T02:18:36.639Z,99994.81
2018-11-10T02:19:42.481Z,99999.15
2018-11-10T02:20:47.918Z,99999.66
2018-11-10T02:21:53.795Z,100002.26
2018-11-10T02:22:59.315Z,100002.60
2018-11-10T02:24:04.477Z,100004.27
2018-11-10T02:25:09.891Z,100010.14
2018-11-10T02:26:15.462Z,100007.36
2018-11-10T02:27:21.318Z,100003.45
2018-11-10T02:28:26.831Z,100004.14
2018-11-10T02:29:32.635Z,100001.14
2018-11-10T02:30:38.470Z,99998.01
2018-11-10T02:31:49.678Z,99998.78
2018-11-10T02:32:57.393Z,100002.25
2018-11-10T02:34:03.201Z,100006.01
2018-11-10T02:35:09.081Z,100005.25
2018-11-10T02:36:14.925Z,100001.03
2018-11-10T02:37:20.480Z,100003.34
2018-11-10T02:38:26.378Z,100004.73
2018-11-10T02:39:32.404Z,100001.59
2018-11-10T02:40:38.203Z,100000.59
2018-11-10T02:41:44.061Z,99998.16
2018-11-10T02:42:49.884Z,100000.53
2018-11-10T02:43:55.734Z,100000.53
2018-11-10T02:45:01.532Z,100000.55
2018-11-10T02:46:07.376Z,99997.51
2018-11-10T02:47:13.223Z,100004.02
2018-11-10T02:48:19.061Z,99997.30
2018-11-10T02:49:24.909Z,99996.16
2018-11-10T02:50:30.797Z,99987.95
2018-11-10T02:51:36.642Z,99991.39
2018-11-10T02:52:47.514Z,99988.45
2018-11-10T02:53:53.624Z,99992.23
2018-11-10T02:54:59.487Z,99990.08
2018-11-10T02:56:04.993Z,99991.33
2018-11-10T02:57:10.780Z,99995.44
2018-11-10T02:58:16.606Z,99995.09
2018-11-10T02:59:22.458Z,99994.84
2018-11-10T03:00:28.273Z,99997.48
2018-11-10T03:01:34.131Z,99994.27
2018-11-10T03:02:39.971Z,99988.52
2018-11-10T03:03:45.789Z,99989.03
2018-11-10T03:04:51.257Z,99991.19
2018-11-10T03:05:57.122Z,99990.33
2018-11-10T03:07:02.909Z,99990.09
2018-11-10T03:08:08.738Z,99988.03
2018-11-10T03:09:14.568Z,99992.86
2018-11-10T03:10:20.476Z,99995.09
2018-11-10T03:11:26.318Z,99993.99
2018-11-10T03:12:32.179Z,99993.13
2018-11-10T03:13:38.701Z,99994.34
2018-11-10T03:14:44.685Z,99994.23
2018-11-10T03:15:50.133Z,99991.20
2018-11-10T03:16:55.955Z,99993.06
2018-11-10T03:18:01.805Z,99986.67
2018-11-10T03:19:07.640Z,99983.42
2018-11-10T03:20:13.439Z,99973.95
2018-11-10T03:21:19.388Z,99971.16
2018-11-10T03:22:25.269Z,99969.86
2018-11-10T03:23:31.192Z,99963.00
2018-11-10T03:24:37.028Z,99962.80
2018-11-10T03:25:42.853Z,99965.56
2018-11-10T03:26:48.674Z,99959.48
2018-11-10T03:27:54.487Z,99957.33
2018-11-10T03:29:00.345Z,99959.08
2018-11-10T03:30:05.900Z,99960.13
2018-11-10T03:31:11.731Z,99962.07
2018-11-10T03:32:17.580Z,99957.05
2018-11-10T03:33:23.442Z,99959.86
2018-11-10T03:34:28.935Z,99958.45
2018-11-10T03:35:34.717Z,99959.14
2018-11-10T03:36:40.527Z,99958.00
2018-11-10T03:37:46.342Z,99956.84
2018-11-10T03:38:52.162Z,99957.82
2018-11-10T03:39:58.027Z,99960.95
2018-11-10T03:41:03.460Z,99965.69
2018-11-10T03:42:09.272Z,99963.17
2018-11-10T03:43:15.146Z,99960.05
2018-11-10T03:44:20.997Z,99965.23
2018-11-10T03:45:26.869Z,99966.61
2018-11-10T03:46:32.650Z,99963.73
2018-11-10T03:47:38.403Z,99955.16
2018-11-10T03:48:44.339Z,99956.70
2018-11-10T03:49:50.311Z,99956.27
2018-11-10T03:50:56.107Z,99947.73
2018-11-10T03:52:01.904Z,99944.74
2018-11-10T03:53:07.733Z,99942.29
2018-11-10T03:54:13.599Z,99935.43
2018-11-10T03:55:20.270Z,99937.09
2018-11-10T03:56:27.935Z,99934.06
2018-11-10T03:57:39.410Z,99934.38
2018-11-10T03:58:45.231Z,99932.18
2018-11-10T03:59:51.054Z,99932.75
2018-11-10T04:00:56.866Z,99933.98
2018-11-10T04:02:02.708Z,99941.66
2018-11-10T04:03:08.501Z,99932.87
2018-11-10T04:04:14.280Z,99936.95
2018-11-10T04:05:20.100Z,99931.69
2018-11-10T04:06:25.913Z,99930.70
2018-11-10T04:07:31.732Z,99937.62
2018-11-10T04:08:37.583Z,99934.77
2018-11-10T04:09:43.436Z,99936.41
2018-11-10T04:10:49.410Z,99935.69
2018-11-10T04:11:55.247Z,99926.84
2018-11-10T04:13:01.063Z,99926.58
2018-11-10T04:14:06.353Z,99927.16
2018-11-10T04:15:12.128Z,99922.02
2018-11-10T04:16:17.940Z,99925.48
2018-11-10T04:17:27.022Z,99925.70
2018-11-10T04:18:38.850Z,99923.56
2018-11-10T04:19:44.623Z,99927.17
2018-11-10T04:20:50.464Z,99921.67
2018-11-10T04:21:56.275Z,99916.58
2018-11-10T04:23:02.108Z,99917.80
2018-11-10T04:24:07.945Z,99916.56
2018-11-10T04:25:13.768Z,99918.24
2018-11-10T04:26:19.712Z,99908.20
2018-11-10T04:27:25.626Z,99913.38
2018-11-10T04:28:31.506Z,99905.69
2018-11-10T04:29:37.336Z,99902.69
2018-11-10T04:30:43.106Z,99901.09
2018-11-10T04:31:48.993Z,99894.62
2018-11-10T04:32:54.806Z,99898.50
2018-11-10T04:34:00.658Z,99903.80
2018-11-10T04:35:05.759Z,99902.37
2018-11-10T04:36:11.605Z,99903.95
2018-11-10T04:37:17.100Z,99903.94
2018-11-10T04:38:22.997Z,99898.54
2018-11-10T04:39:28.845Z,99900.20
2018-11-10T04:40:34.668Z,99901.73
2018-11-10T04:41:40.509Z,99893.53
2018-11-10T04:42:46.364Z,99895.45
2018-11-10T04:43:52.177Z,99893.66
2018-11-10T04:44:57.986Z,99891.52
2018-11-10T04:46:03.793Z,99888.94
2018-11-10T04:47:11.475Z,99888.94
2018-11-10T04:48:18.848Z,99884.16
2018-11-10T04:49:26.175Z,99884.23
2018-11-10T04:50:32.857Z,99883.39
2018-11-10T04:51:40.242Z,99882.20
2018-11-10T04:52:46.382Z,99882.59
2018-11-10T04:53:52.230Z,99889.91
2018-11-10T04:54:58.025Z,99885.68
2018-11-10T04:56:03.736Z,99883.15
2018-11-10T04:57:09.183Z,99889.13
2018-11-10T04:58:15.212Z,99887.32
2018-11-10T04:59:21.525Z,99889.26
2018-11-10T05:00:27.490Z,99890.92
2018-11-10T05:01:33.384Z,99891.23
2018-11-10T05:02:39.338Z,99891.94
2018-11-10T05:03:45.326Z,99898.84
2018-11-10T05:04:51.127Z,99899.27
2018-11-10T05:05:56.999Z,99900.22
2018-11-10T05:07:02.818Z,99901.66
2018-11-10T05:08:08.629Z,99901.45
2018-11-10T05:09:14.470Z,99898.95
2018-11-10T05:10:19.973Z,99900.23
2018-11-10T05:11:25.807Z,99897.84
2018-11-10T05:12:31.663Z,99899.02
2018-11-10T05:13:37.494Z,99896.91
2018-11-10T05:14:43.343Z,99896.42
2018-11-10T05:15:49.140Z,99893.95
2018-11-10T05:16:54.948Z,99897.77
2018-11-10T05:18:01.161Z,99901.16
2018-11-10T05:19:06.636Z,99898.58
2018-11-10T05:20:12.484Z,99898.59
2018-11-10T05:21:18.322Z,99894.82
2018-11-10T05:22:24.172Z,99900.95
2018-11-10T05:23:29.987Z,99897.25
2018-11-10T05:24:35.829Z,99894.91
2018-11-10T05:25:41.701Z,99895.90
2018-11-10T05:26:47.720Z,99893.25
2018-11-10T05:27:53.556Z,99890.06
2018-11-10T05:28:59.486Z,99888.42
2018-11-10T05:30:04.715Z,99888.41
2018-11-10T05:31:10.676Z,99885.39
2018-11-10T05:32:16.723Z,99887.89
2018-11-10T05:33:22.593Z,99882.23
2018-11-10T05:34:28.734Z,99882.64
2018-11-10T05:35:34.770Z,99890.05
2018-11-10T05:36:41.844Z,99884.87
2018-11-10T05:37:48.365Z,99884.76
2018-11-10T05:38:54.629Z,99879.69
2018-11-10T05:40:00.783Z,99874.58
2018-11-10T05:41:07.056Z,99884.08
2018-11-10T05:42:13.271Z,99885.38
2018-11-10T05:43:19.838Z,99889.20
2018-11-10T05:44:25.997Z,99880.42
2018-11-10T05:45:31.931Z,99884.23
2018-11-10T05:46:38.094Z,99878.97
2018-11-10T05:47:43.932Z,99886.47
2018-11-10T05:48:50.143Z,99881.00
2018-11-10T05:49:56.257Z,99874.11
2018-11-10T05:51:02.331Z,99886.47
2018-11-10T05:52:08.633Z,99877.98
2018-11-10T05:53:14.773Z,99879.71
2018-11-10T05:54:20.921Z,99884.97
2018-11-10T05:55:26.916Z,99880.74
2018-11-10T05:56:32.917Z,99875.81
2018-11-10T05:57:39.136Z,99875.66
2018-11-10T05:58:45.545Z,99883.45
2018-11-10T05:59:51.354Z,99870.27
2018-11-10T06:00:59.020Z,99870.86
2018-11-10T06:02:05.497Z,99864.96
2018-11-10T06:03:11.591Z,99871.20
2018-11-10T06:04:17.821Z,99866.39
2018-11-10T06:05:23.750Z,99862.99
2018-11-10T06:06:29.901Z,99863.43
2018-11-10T06:07:35.819Z,99859.25
2018-11-10T06:08:41.983Z,99857.08
2018-11-10T06:09:48.677Z,99857.81
2018-11-10T06:10:56.909Z,99859.17
2018-11-10T06:12:04.747Z,99864.58
2018-11-10T06:13:11.859Z,99859.27
2018-11-10T06:14:19.790Z,99860.55
2018-11-10T06:15:26.726Z,99859.31
2018-11-10T06:16:33.415Z,99856.80
2018-11-10T06:17:40.535Z,99856.89
2018-11-10T06:18:47.368Z,99860.25
2018-11-10T06:19:54.071Z,99856.46
2018-11-10T06:21:01.228Z,99857.47
2018-11-10T06:22:07.726Z,99861.09
2018-11-10T06:23:13.572Z,99855.48
2018-11-10T06:24:20.444Z,99853.12
2018-11-10T06:25:26.595Z,99860.81
2018-11-10T06:26:32.713Z,99861.34
2018-11-10T06:27:38.941Z,99857.87
2018-11-10T06:28:44.816Z,99862.59
2018-11-10T06:29:50.667Z,99866.53
2018-11-10T06:30:56.489Z,99862.88
2018-11-10T06:32:01.973Z,99861.74
2018-11-10T06:33:07.426Z,99859.39
2018-11-10T06:34:13.261Z,99859.66
2018-11-10T06:35:19.163Z,99860.98
2018-11-10T06:36:25.004Z,99863.23
2018-11-10T06:37:30.864Z,99856.36
2018-11-10T06:38:36.676Z,99861.63
2018-11-10T06:39:42.541Z,99860.05
2018-11-10T06:40:48.377Z,99865.81
2018-11-10T06:41:57.100Z,99867.59
2018-11-10T06:43:02.962Z,99871.80
2018-11-10T06:44:08.599Z,99869.56
2018-11-10T06:45:21.571Z,99868.84
2018-11-10T06:46:27.599Z,99872.92
2018-11-10T06:47:33.470Z,99869.05
2018-11-10T06:48:39.242Z,99863.87
2018-11-10T06:49:45.076Z,99866.94
2018-11-10T06:50:50.927Z,99868.17
2018-11-10T06:51:56.437Z,99869.84
2018-11-10T06:53:02.330Z,99862.13
2018-11-10T06:54:08.314Z,99868.60
2018-11-10T06:55:14.141Z,99871.13
2018-11-10T06:56:19.980Z,99867.17
2018-11-10T06:57:26.258Z,99862.34
2018-11-10T06:58:32.069Z,99860.62
2018-11-10T06:59:37.903Z,99865.45
2018-11-10T07:00:44.067Z,99855.95
2018-11-10T07:01:50.902Z,99861.92
2018-11-10T07:02:56.794Z,99857.45
2018-11-10T07:04:03.817Z,99861.40
2018-11-10T07:05:09.757Z,99855.21
2018-11-10T07:06:16.054Z,99856.56
2018-11-10T07:07:21.940Z,99856.34
2018-11-10T07:08:27.907Z,99860.73
2018-11-10T07:09:33.400Z,99861.63
2018-11-10T07:10:39.665Z,99859.02
2018-11-10T07:11:45.632Z,99863.84
2018-11-10T07:12:51.583Z,99860.05
2018-11-10T07:13:57.500Z,99863.01
2018-11-10T07:15:03.091Z,99864.00
2018-11-10T07:16:09.476Z,99863.06
2018-11-10T07:17:15.664Z,99862.97
2018-11-10T07:18:21.605Z,99868.09
2018-11-10T07:19:27.646Z,99859.90
2018-11-10T07:20:33.801Z,99863.72
2018-11-10T07:21:39.871Z,99855.41
2018-11-10T07:22:45.453Z,99863.91
2018-11-10T07:23:51.365Z,99861.61
2018-11-10T07:24:57.183Z,99863.59
2018-11-10T07:26:03.553Z,99863.34
2018-11-10T07:27:09.986Z,99866.19
2018-11-10T07:28:16.396Z,99865.69
2018-11-10T07:29:22.222Z,99863.08
2018-11-10T07:30:28.036Z,99864.66
2018-11-10T07:31:33.885Z,99861.84
2018-11-10T07:32:39.985Z,99862.84
2018-11-10T07:33:45.873Z,99852.45
2018-11-10T07:34:53.327Z,99853.08
2018-11-10T07:35:59.699Z,99854.73
2018-11-10T07:37:04.792Z,99849.80
2018-11-10T07:38:13.638Z,99850.39
2018-11-10T07:39:19.090Z,99857.50
2018-11-10T07:40:24.907Z,99854.72
2018-11-10T07:41:30.709Z,99859.30
2018-11-10T07:42:36.561Z,99851.43
2018-11-10T07:43:42.424Z,99853.90
2018-11-10T07:44:48.426Z,99847.11
2018-11-10T07:45:54.233Z,99840.52
2018-11-10T07:47:00.057Z,99839.19
2018-11-10T07:48:05.202Z,99842.37
2018-11-10T07:49:11.051Z,99840.98
2018-11-10T07:50:17.062Z,99839.25
2018-11-10T07:51:22.971Z,99839.61
2018-11-10T07:52:28.951Z,99833.18
2018-11-10T07:53:34.842Z,99833.18
2018-11-10T07:54:40.664Z,99838.86
2018-11-10T07:55:46.492Z,99833.47
2018-11-10T07:56:52.606Z,99831.05
2018-11-10T07:57:58.427Z,99829.70
2018-11-10T07:59:04.237Z,99824.80
2018-11-10T08:00:09.384Z,99830.95
2018-11-10T08:01:15.219Z,99828.04
2018-11-10T08:02:21.083Z,99821.13
2018-11-10T08:03:26.920Z,99821.70
2018-11-10T08:04:32.755Z,99815.77
2018-11-10T08:05:38.721Z,99813.20
2018-11-10T08:06:44.532Z,99824.22
2018-11-10T08:07:50.364Z,99817.91
2018-11-10T08:08:56.165Z,99816.52
2018-11-10T08:10:02.028Z,99811.50
2018-11-10T08:11:07.811Z,99809.15
2018-11-10T08:12:13.662Z,99807.33
2018-11-10T08:13:19.467Z,99803.19
2018-11-10T08:14:25.307Z,99805.66
2018-11-10T08:15:31.178Z,99795.73
2018-11-10T08:16:37.048Z,99805.05
2018-11-10T08:17:42.575Z,99802.14
2018-11-10T08:18:48.430Z,99796.34
2018-11-10T08:19:54.222Z,99796.55
2018-11-10T08:21:00.060Z,99790.16
2018-11-10T08:22:05.879Z,99786.31
2018-11-10T08:23:11.719Z,99783.93
2018-11-10T08:24:17.528Z,99781.75
2018-11-10T08:25:23.338Z,99776.27
2018-11-10T08:26:29.198Z,99778.55
2018-11-10T08:27:35.049Z,99772.09
2018-11-10T08:28:40.844Z,99778.48
2018-11-10T08:29:46.663Z,99781.13
2018-11-10T08:30:52.472Z,99794.05
2018-11-10T08:31:58.286Z,99809.55
2018-11-10T08:33:03.738Z,99827.50
2018-11-10T08:34:09.598Z,99838.78
2018-11-10T08:35:15.396Z,99841.66
2018-11-10T08:36:21.207Z,99844.79
2018-11-10T08:37:27.059Z,99839.05
2018-11-10T08:38:32.980Z,99832.66
2018-11-10T08:39:38.807Z,99829.89
2018-11-10T08:40:44.626Z,99828.47
2018-11-10T08:41:50.512Z,99824.51
2018-11-10T08:42:56.336Z,99823.60
2018-11-10T08:44:02.178Z,99823.78
2018-11-10T08:45:07.651Z,99816.88
2018-11-10T08:46:13.519Z,99818.53
2018-11-10T08:47:19.379Z,99817.80
2018-11-10T08:48:25.227Z,99817.81
2018-11-10T08:49:31.053Z,99826.31
2018-11-10T08:50:36.892Z,99820.77
2018-11-10T08:51:42.763Z,99821.68
2018-11-10T08:52:48.560Z,99817.33
2018-11-10T08:53:54.399Z,99824.13
2018-11-10T08:55:00.212Z,99827.56
2018-11-10T08:56:05.334Z,99832.84
2018-11-10T08:57:11.174Z,99831.83
2018-11-10T08:58:17.616Z,99822.08
2018-11-10T08:59:24.440Z,99817.84
2018-11-10T09:00:31.187Z,99818.02
2018-11-10T09:01:38.518Z,99817.52
2018-11-10T09:02:45.882Z,99817.55
2018-11-10T09:03:52.715Z,99814.20
2018-11-10T09:04:58.550Z,99806.98
2018-11-10T09:06:04.366Z,99810.83
2018-11-10T09:07:10.116Z,99801.97
2018-11-10T09:08:15.569Z,99797.97
2018-11-10T09:09:21.384Z,99797.16
2018-11-10T09:10:27.185Z,99797.19
2018-11-10T09:11:32.999Z,99798.47
2018-11-10T09:12:41.822Z,99793.36
2018-11-10T09:13:53.605Z,99798.56
2018-11-10T09:14:59.617Z,99796.55
2018-11-10T09:16:05.279Z,99803.80
2018-11-10T09:17:11.094Z,99813.13
2018-11-10T09:18:16.916Z,99832.13
2018-11-10T09:19:22.815Z,99849.96
2018-11-10T09:20:28.611Z,99873.89
2018-11-10T09:21:34.496Z,99879.53
2018-11-10T09:22:40.400Z,99873.32
2018-11-10T09:23:46.241Z,99868.92
2018-11-10T09:24:52.114Z,99862.89
2018-11-10T09:25:57.948Z,99867.48
2018-11-10T09:27:03.715Z,99865.64
2018-11-10T09:28:09.523Z,99856.52
2018-11-10T09:29:15.349Z,99844.67
2018-11-10T09:30:21.174Z,99854.13
2018-11-10T09:31:26.976Z,99862.61
2018-11-10T09:32:32.772Z,99872.75
2018-11-10T09:33:44.541Z,99875.05
2018-11-10T09:34:58.721Z,99886.97
2018-11-10T09:36:04.545Z,99880.88
2018-11-10T09:37:09.983Z,99876.41
2018-11-10T09:38:15.761Z,99881.70
2018-11-10T09:39:21.581Z,99873.66
2018-11-10T09:40:27.454Z,99867.97
2018-11-10T09:41:33.240Z,99866.07
2018-11-10T09:42:39.066Z,99871.84
2018-11-10T09:43:44.844Z,99874.97
2018-11-10T09:44:50.716Z,99873.30
2018-11-10T09:45:56.521Z,99873.97
2018-11-10T09:47:02.270Z,99864.68
2018-11-10T09:48:08.288Z,99873.83
2018-11-10T09:49:14.089Z,99865.22
2018-11-10T09:50:19.883Z,99871.50
2018-11-10T09:51:25.687Z,99880.63
2018-11-10T09:52:31.523Z,99880.75
2018-11-10T09:53:37.335Z,99876.05
2018-11-10T09:54:43.117Z,99873.64
2018-11-10T09:55:49.354Z,99869.57
2018-11-10T09:56:55.155Z,99869.30
2018-11-10T09:58:00.920Z,99869.59
2018-11-10T09:59:06.031Z,99867.32
2018-11-10T10:00:11.451Z,99860.56
2018-11-10T10:01:17.391Z,99867.39
2018-11-10T10:02:23.688Z,99865.56
2018-11-10T10:03:29.262Z,99859.77
2018-11-10T10:04:35.116Z,99862.33
2018-11-10T10:05:40.890Z,99858.66
2018-11-10T10:06:46.691Z,99856.03
2018-11-10T10:07:52.512Z,99848.19
2018-11-10T10:08:58.363Z,99847.23
2018-11-10T10:10:03.558Z,99839.67
2018-11-10T10:11:09.374Z,99839.25
2018-11-10T10:12:15.175Z,99824.33
2018-11-10T10:13:20.959Z,99821.98
2018-11-10T10:14:26.753Z,99818.53
2018-11-10T10:15:32.545Z,99826.70
2018-11-10T10:16:38.421Z,99810.47
2018-11-10T10:17:44.352Z,99808.67
2018-11-10T10:18:50.133Z,99812.59
2018-11-10T10:19:55.935Z,99818.19
2018-11-10T10:21:01.768Z,99821.16
2018-11-10T10:22:07.239Z,99810.47
2018-11-10T10:23:13.048Z,99818.52
2018-11-10T10:24:18.814Z,99802.32
2018-11-10T10:25:24.646Z,99807.16
2018-11-10T10:26:30.390Z,99806.98
2018-11-10T10:27:36.162Z,99809.27
2018-11-10T10:28:41.924Z,99811.40
2018-11-10T10:29:47.694Z,99819.34
2018-11-10T10:30:53.706Z,99813.19
2018-11-10T10:31:59.459Z,99811.75
2018-11-10T10:33:05.200Z,99807.14
2018-11-10T10:34:10.994Z,99805.78
2018-11-10T10:35:17.160Z,99815.12
2018-11-10T10:36:23.075Z,99806.67
2018-11-10T10:37:28.857Z,99802.81
2018-11-10T10:38:34.812Z,99799.41
2018-11-10T10:39:40.271Z,99800.98
2018-11-10T10:40:46.103Z,99800.89
2018-11-10T10:41:51.536Z,99792.06
2018-11-10T10:42:57.331Z,99794.47
2018-11-10T10:44:03.002Z,99810.02
2018-11-10T10:45:08.081Z,99804.92
2018-11-10T10:46:13.894Z,99799.11
2018-11-10T10:47:19.698Z,99805.91
2018-11-10T10:48:25.490Z,99796.85
2018-11-10T10:49:31.280Z,99795.13
2018-11-10T10:50:37.054Z,99788.70
2018-11-10T10:51:42.899Z,99797.75
2018-11-10T10:52:48.688Z,99800.45
2018-11-10T10:53:54.470Z,99802.64
2018-11-10T10:55:00.295Z,99794.94
2018-11-10T10:56:05.837Z,99799.72
2018-11-10T10:57:11.848Z,99795.72
2018-11-10T10:58:17.781Z,99803.19
2018-11-10T10:59:23.917Z,99803.81
2018-11-10T11:00:29.464Z,99805.90
2018-11-10T11:13:37.199Z,99782.66
2018-11-10T11:14:46.141Z,99779.32
2018-11-10T11:15:54.083Z,99781.84
2018-11-10T11:17:02.611Z,99780.70
2018-11-10T11:18:09.888Z,99777.24
2018-11-10T11:19:18.596Z,99787.95
2018-11-10T11:20:25.480Z,99779.31
2018-11-10T11:21:33.503Z,99778.00
2018-11-10T11:22:43.283Z,99782.52
2018-11-10T11:23:54.516Z,99772.16
2018-11-10T11:25:05.723Z,99767.09
2018-11-10T11:26:12.517Z,99779.64
2018-11-10T11:27:19.319Z,99775.16
2018-11-10T11:28:28.278Z,99772.12
2018-11-10T11:29:36.832Z,99771.10
2018-11-10T11:30:42.668Z,99772.66
2018-11-10T11:31:48.892Z,99769.77
2018-11-10T11:32:56.232Z,99776.41
2018-11-10T11:34:06.631Z,99765.93
2018-11-10T11:35:14.459Z,99771.94
2018-11-10T11:36:23.560Z,99771.31
2018-11-10T11:37:32.050Z,99770.88
2018-11-10T11:38:41.804Z,99769.46
2018-11-10T11:39:50.338Z,99766.52
2018-11-10T11:41:01.653Z,99766.72
2018-11-10T11:42:14.197Z,99763.67
2018-11-10T11:43:22.939Z,99764.89
2018-11-10T11:44:31.406Z,99768.38
2018-11-10T11:45:38.659Z,99762.59
2018-11-10T11:46:48.091Z,99770.13
2018-11-10T11:47:58.408Z,99763.27
2018-11-10T11:49:09.662Z,99761.85
2018-11-10T11:50:16.579Z,99767.99
2018-11-10T11:51:25.414Z,99767.53
2018-11-10T11:52:32.833Z,99768.89
2018-11-10T11:53:39.784Z,99772.20
2018-11-10T11:54:46.069Z,99767.27
2018-11-10T11:55:52.095Z,99779.27
2018-11-10T11:57:00.791Z,99775.57
2018-11-10T11:58:12.566Z,99772.42
2018-11-10T11:59:19.932Z,99771.22
2018-11-10T12:00:27.765Z,99774.98
2018-11-10T12:01:35.574Z,99775.60
2018-11-10T12:02:42.765Z,99777.39
2018-11-10T12:03:52.286Z,99769.95
2018-11-10T12:05:04.659Z,99772.68
2018-11-10T12:06:13.095Z,99771.56
2018-11-10T12:07:21.831Z,99769.32
2018-11-10T12:08:31.215Z,99769.19
2018-11-10T12:09:40.082Z,99772.55
2018-11-10T12:10:48.380Z,99769.87
2018-11-10T12:11:54.692Z,99763.70
2018-11-10T12:13:00.952Z,99764.01
2018-11-10T12:14:11.019Z,99764.69
2018-11-10T12:15:19.854Z,99769.38
2018-11-10T12:16:27.766Z,99766.77
2018-11-10T12:17:35.667Z,99770.95
2018-11-10T12:18:45.667Z,99764.31
2018-11-10T12:19:51.969Z,99761.70
2018-11-10T12:21:01.629Z,99767.70
2018-11-10T12:22:09.758Z,99766.50
2018-11-10T12:23:17.238Z,99761.44
2018-11-10T12:24:27.679Z,99758.16
2018-11-10T12:25:36.640Z,99755.95
2018-11-10T12:26:49.347Z,99756.45
2018-11-10T12:27:58.991Z,99756.66
2018-11-10T12:29:04.836Z,99754.91
2018-11-10T12:30:10.771Z,99756.98
2018-11-10T12:31:21.088Z,99760.17
2018-11-10T12:32:28.409Z,99763.73
2018-11-10T12:33:37.516Z,99756.85
2018-11-10T12:34:48.012Z,99753.86
2018-11-10T12:35:57.446Z,99759.14
2018-11-10T12:37:05.369Z,99751.01
2018-11-10T12:38:15.275Z,99747.41
2018-11-10T12:39:22.997Z,99752.67
2018-11-10T12:40:32.944Z,99759.14
2018-11-10T12:41:42.109Z,99750.81
2018-11-10T12:42:50.514Z,99749.54
2018-11-10T12:43:57.908Z,99749.33
2018-11-10T12:45:05.337Z,99749.23
2018-11-10T12:46:16.610Z,99743.67
2018-11-10T12:47:24.029Z,99750.27
2018-11-10T12:48:31.086Z,99745.12
2018-11-10T12:49:38.426Z,99748.52
2018-11-10T12:50:48.593Z,99746.62
2018-11-10T12:52:02.666Z,99739.48
2018-11-10T12:53:10.098Z,99743.48
2018-11-10T12:54:18.241Z,99749.38
2018-11-10T12:55:26.781Z,99744.77
2018-11-10T12:56:33.451Z,99739.52
2018-11-10T12:57:41.546Z,99735.26
2018-11-10T12:58:55.112Z,99742.86
2018-11-10T13:00:03.442Z,99745.07
2018-11-10T13:01:13.156Z,99747.02
2018-11-10T13:02:20.457Z,99739.98
2018-11-10T13:03:29.204Z,99748.98
2018-11-10T13:04:40.689Z,99747.90
2018-11-10T13:05:46.723Z,99750.91
2018-11-10T13:06:53.039Z,99745.81